Hauptseite
METAR-TAF:

METAR-TAF

Flughäfen :

Benbecula Airport

Benbecula, Schottland

Breite: 57-28N, Länge: 007-22W, Höhe: 6 m

Beobachtung

Neuester Wetterbericht von vor 24 Minuten, um 07:50 UTC
Wind 5 kt aus Nord/Nordost
Temperatur 13°C
Luftfeuchtigkeit 94%
Luftdruck 1014 hPa
Sichtweite 10 km oder mehr
Leicht bewölkt in der Höhe von 900 ft

METAR: EGPL 190750Z 02005KT 9999 FEW009 13/12 Q1014

Zeit: 09:14 (08:14 UTC)

Prognose

Neuester Wetterbericht von vor 3 Stunden und 17 Minuten, um 04:57 UTC
Gültige Prognose vom 19 um 06 UTC bis 19 um 15 UTC
Wind 5 kt aus Nord
Sichtweite 10 km oder mehr
Aufgelockert bewölkt in der Höhe von 3500 ft

TAF: EGPL 190457Z 1906/1915 35005KT 9999 SCT035

Wetterbeobachtungen und Prognosen von mehr als 4000 Flughäfen (METAR und TAF Bericht).

Die verfügbaren Stationen werden durch gelbe und rote Markierungen auf der Karte dargestellt.

Führen Sie die Maus auf sie, um den Namen der Station zu sehen.

Darauf klicken, um die Beobachtung von Wetterbeobachtungen und Prognosen zu sehen.

Um die Karte zu ändern : klicken Sie auf den grünen Tasten mit einem schwarzen Kreuz Zum Vergrößern, auf den grünen Button mit einem Gedankenstrich zu verkleinern, oder auf die grünen Pfeile für benachbarte Karten.


METAR-TAF: